createdAt,value
2023-11-15T00:01:18.985Z,11.37
2023-11-15T00:03:46.897Z,12.43
2023-11-15T00:06:14.642Z,11.10
2023-11-15T00:08:42.605Z,13.33
2023-11-15T00:11:10.306Z,11.53
2023-11-15T00:13:38.558Z,11.47
2023-11-15T00:16:06.625Z,11.67
2023-11-15T00:18:34.316Z,12.43
2023-11-15T00:21:01.963Z,11.90
2023-11-15T00:23:29.650Z,11.57
2023-11-15T00:25:57.332Z,13.03
2023-11-15T00:28:24.961Z,13.10
2023-11-15T00:30:52.536Z,11.90
2023-11-15T00:33:20.589Z,13.63
2023-11-15T00:35:48.283Z,13.40
2023-11-15T00:38:16.170Z,12.30
2023-11-15T00:40:43.884Z,12.27
2023-11-15T00:43:11.553Z,11.70
2023-11-15T00:45:39.229Z,11.87
2023-11-15T00:48:07.021Z,12.10
2023-11-15T00:50:34.686Z,11.30
2023-11-15T00:53:02.432Z,12.70
2023-11-15T00:55:30.246Z,12.80
2023-11-15T00:57:58.485Z,11.93
2023-11-15T01:00:26.043Z,11.53
2023-11-15T01:02:53.949Z,9.47
2023-11-15T01:05:21.719Z,11.13
2023-11-15T01:07:49.433Z,10.90
2023-11-15T01:10:17.114Z,10.67
2023-11-15T01:12:44.784Z,10.97
2023-11-15T01:15:12.407Z,10.77
2023-11-15T01:17:40.250Z,10.03
2023-11-15T01:20:08.015Z,10.77
2023-11-15T01:22:35.693Z,11.63
2023-11-15T01:25:03.400Z,10.90
2023-11-15T01:27:31.038Z,10.23
2023-11-15T01:29:58.630Z,11.63
2023-11-15T01:32:26.474Z,10.63
2023-11-15T01:34:54.232Z,11.60
2023-11-15T01:37:21.872Z,10.43
2023-11-15T01:39:49.465Z,10.50
2023-11-15T01:42:19.341Z,10.07
2023-11-15T01:44:49.429Z,9.83
2023-11-15T01:47:17.165Z,10.73
2023-11-15T01:49:44.812Z,10.27
2023-11-15T01:52:12.758Z,9.97
2023-11-15T01:54:40.414Z,9.93
2023-11-15T01:57:08.131Z,9.50
2023-11-15T01:59:35.837Z,9.30
2023-11-15T02:02:03.590Z,8.63
2023-11-15T02:04:31.220Z,9.07
2023-11-15T02:06:59.020Z,9.43
2023-11-15T02:09:26.673Z,9.47
2023-11-15T02:11:54.338Z,8.90
2023-11-15T02:14:22.116Z,8.97
2023-11-15T02:16:49.901Z,9.03
2023-11-15T02:19:17.682Z,8.97
2023-11-15T02:21:45.386Z,10.27
2023-11-15T02:24:13.210Z,8.93
2023-11-15T02:26:41.161Z,9.27
2023-11-15T02:29:08.751Z,8.77
2023-11-15T02:31:36.517Z,9.33
2023-11-15T02:34:04.167Z,9.43
2023-11-15T02:36:32.024Z,9.03
2023-11-15T02:38:59.746Z,8.50
2023-11-15T02:41:27.979Z,9.50
2023-11-15T02:43:55.833Z,9.27
2023-11-15T02:46:23.705Z,7.90
2023-11-15T02:48:51.831Z,8.73
2023-11-15T02:51:19.510Z,10.20
2023-11-15T02:53:47.201Z,9.37
2023-11-15T02:56:14.907Z,10.00
2023-11-15T02:58:42.571Z,8.87
2023-11-15T03:01:10.529Z,9.63
2023-11-15T03:03:39.038Z,9.10
2023-11-15T03:06:07.095Z,8.73
2023-11-15T03:08:35.215Z,8.30
2023-11-15T03:11:02.888Z,8.60
2023-11-15T03:13:30.576Z,7.83
2023-11-15T03:15:58.304Z,8.53
2023-11-15T03:18:26.113Z,8.53
2023-11-15T03:20:53.829Z,7.80
2023-11-15T03:23:21.533Z,8.47
2023-11-15T03:25:49.255Z,8.73
2023-11-15T03:28:16.877Z,7.73
2023-11-15T03:30:44.813Z,7.10
2023-11-15T03:33:12.555Z,7.97
2023-11-15T03:35:40.331Z,7.67
2023-11-15T03:38:11.076Z,8.20
2023-11-15T03:40:38.732Z,8.10
2023-11-15T03:43:06.284Z,8.87
2023-11-15T03:45:34.007Z,7.97
2023-11-15T03:48:03.182Z,9.17
2023-11-15T03:50:30.998Z,7.73
2023-11-15T03:52:58.606Z,7.50
2023-11-15T03:55:26.271Z,7.50
2023-11-15T03:57:53.989Z,7.67
2023-11-15T04:00:21.644Z,7.27
2023-11-15T04:02:49.388Z,6.73
2023-11-15T04:05:17.274Z,6.90
2023-11-15T04:07:45.193Z,7.07
2023-11-15T04:10:12.929Z,6.83
2023-11-15T04:12:40.625Z,6.43
2023-11-15T04:15:08.405Z,6.40
2023-11-15T04:17:36.195Z,5.93
2023-11-15T04:20:04.606Z,6.53
2023-11-15T04:22:32.206Z,6.50
2023-11-15T04:25:00.460Z,6.43
2023-11-15T04:27:28.042Z,6.57
2023-11-15T04:29:55.661Z,6.00
2023-11-15T04:32:23.241Z,6.40
2023-11-15T04:34:51.008Z,6.63
2023-11-15T04:37:18.638Z,5.70
2023-11-15T04:39:46.338Z,6.03
2023-11-15T04:42:14.057Z,6.00
2023-11-15T04:44:41.788Z,5.77
2023-11-15T04:47:09.361Z,6.43
2023-11-15T04:49:36.944Z,6.33
2023-11-15T04:52:04.718Z,5.77
2023-11-15T04:54:32.325Z,5.90
2023-11-15T04:56:59.974Z,6.50
2023-11-15T04:59:27.754Z,6.60
2023-11-15T05:01:55.318Z,6.43
2023-11-15T05:04:23.170Z,6.47
2023-11-15T05:06:50.916Z,5.87
2023-11-15T05:09:18.586Z,6.00
2023-11-15T05:11:46.262Z,5.70
2023-11-15T05:14:13.982Z,6.73
2023-11-15T05:16:41.789Z,5.17
2023-11-15T05:19:09.536Z,5.90
2023-11-15T05:21:45.543Z,6.10
2023-11-15T05:24:13.300Z,5.97
2023-11-15T05:26:40.906Z,5.40
2023-11-15T05:29:08.572Z,5.20
2023-11-15T05:31:36.238Z,5.97
2023-11-15T05:34:03.906Z,5.57
2023-11-15T05:36:31.468Z,5.63
2023-11-15T05:38:59.216Z,4.60
2023-11-15T05:41:29.072Z,5.23
2023-11-15T05:43:57.515Z,4.33
2023-11-15T05:46:25.121Z,5.07
2023-11-15T05:48:52.768Z,5.03
2023-11-15T05:51:20.403Z,5.23
2023-11-15T05:53:48.064Z,5.00
2023-11-15T05:56:17.199Z,5.70
2023-11-15T05:58:45.066Z,5.67
2023-11-15T06:01:12.844Z,5.50
2023-11-15T06:03:40.599Z,5.83
2023-11-15T06:06:08.437Z,5.63
2023-11-15T06:08:36.163Z,5.57
2023-11-15T06:11:03.897Z,4.67
2023-11-15T06:13:31.556Z,5.53
2023-11-15T06:15:59.177Z,5.90
2023-11-15T06:18:26.845Z,5.23
2023-11-15T06:20:54.537Z,5.50
2023-11-15T06:23:22.180Z,5.43
2023-11-15T06:25:49.779Z,6.30
2023-11-15T06:28:17.731Z,6.43
2023-11-15T06:30:45.464Z,6.90
2023-11-15T06:33:13.362Z,6.30
2023-11-15T06:35:41.172Z,6.03
2023-11-15T06:38:08.860Z,6.60
2023-11-15T06:40:36.521Z,5.47
2023-11-15T06:43:04.213Z,6.00
2023-11-15T06:45:32.093Z,6.53
2023-11-15T06:47:59.791Z,7.23
2023-11-15T06:50:27.416Z,7.00
2023-11-15T06:52:56.301Z,6.10
2023-11-15T06:55:23.881Z,7.40
2023-11-15T06:57:52.156Z,7.03
2023-11-15T07:00:21.292Z,6.57
2023-11-15T07:02:49.066Z,6.53
2023-11-15T07:05:16.689Z,6.40
2023-11-15T07:07:44.471Z,7.07
2023-11-15T07:10:12.136Z,8.23
2023-11-15T07:12:39.749Z,7.57
2023-11-15T07:15:07.556Z,6.87
2023-11-15T07:17:35.296Z,6.43
2023-11-15T07:20:02.936Z,6.47
2023-11-15T07:22:30.554Z,6.90
2023-11-15T07:24:58.150Z,6.43
2023-11-15T07:27:25.820Z,6.30
2023-11-15T07:29:53.597Z,6.30
2023-11-15T07:32:21.801Z,6.17
2023-11-15T07:34:49.427Z,6.03
2023-11-15T07:37:17.066Z,7.07
2023-11-15T07:39:44.668Z,5.83
2023-11-15T07:42:12.367Z,6.30
2023-11-15T07:44:40.044Z,6.27
2023-11-15T07:47:07.813Z,6.17
2023-11-15T07:49:35.528Z,6.83
2023-11-15T07:52:03.160Z,6.27
2023-11-15T07:54:30.815Z,6.10
2023-11-15T07:56:58.466Z,6.23
2023-11-15T07:59:26.120Z,5.57
2023-11-15T08:01:54.126Z,6.40
2023-11-15T08:04:21.980Z,6.77
2023-11-15T08:06:49.919Z,6.87
2023-11-15T08:09:19.317Z,6.17
2023-11-15T08:11:47.037Z,6.50
2023-11-15T08:14:14.603Z,6.83
2023-11-15T08:16:42.288Z,6.63
2023-11-15T08:19:10.037Z,6.13
2023-11-15T08:21:37.776Z,6.30
2023-11-15T08:24:05.570Z,5.83
2023-11-15T08:26:33.218Z,5.87
2023-11-15T08:29:00.949Z,5.77
2023-11-15T08:31:29.369Z,6.00
2023-11-15T08:33:57.003Z,5.40
2023-11-15T08:36:24.745Z,5.70
2023-11-15T08:38:52.419Z,5.47
2023-11-15T08:41:20.084Z,4.63
2023-11-15T08:43:47.758Z,5.33
2023-11-15T08:46:15.441Z,5.30
2023-11-15T08:48:43.169Z,5.30
2023-11-15T08:51:10.932Z,5.10
2023-11-15T08:53:38.839Z,4.93
2023-11-15T08:56:07.113Z,5.20
2023-11-15T08:58:35.186Z,4.83
2023-11-15T09:01:03.064Z,5.23
2023-11-15T09:03:30.958Z,4.77
2023-11-15T09:05:58.812Z,4.90
2023-11-15T09:08:26.442Z,4.27
2023-11-15T09:10:54.101Z,4.43
2023-11-15T09:13:21.697Z,4.20
2023-11-15T09:15:49.741Z,4.50
2023-11-15T09:18:17.353Z,4.50
2023-11-15T09:20:45.087Z,4.93
2023-11-15T09:23:21.910Z,5.27
2023-11-15T09:25:53.488Z,5.40
2023-11-15T09:28:21.078Z,5.27
2023-11-15T09:30:48.770Z,4.27
2023-11-15T09:33:16.458Z,4.37
2023-11-15T09:35:51.995Z,3.87
2023-11-15T09:38:23.026Z,3.90
2023-11-15T09:40:50.685Z,4.00
2023-11-15T09:43:18.425Z,4.07
2023-11-15T09:45:46.812Z,4.23
2023-11-15T09:48:14.572Z,3.50
2023-11-15T09:50:42.854Z,3.53
2023-11-15T09:53:10.652Z,3.80
2023-11-15T09:55:38.260Z,3.50
2023-11-15T09:58:05.925Z,3.83
2023-11-15T10:00:33.846Z,4.07
2023-11-15T10:03:01.756Z,3.73
2023-11-15T10:05:29.733Z,4.17
2023-11-15T10:08:14.516Z,4.10
2023-11-15T10:10:43.518Z,3.77
2023-11-15T10:13:20.410Z,3.80
2023-11-15T10:15:48.301Z,4.00
2023-11-15T10:18:17.443Z,4.33
2023-11-15T10:20:45.541Z,4.20
2023-11-15T10:23:13.593Z,4.40
2023-11-15T10:25:48.478Z,3.90
2023-11-15T10:28:16.617Z,4.13
2023-11-15T10:30:44.796Z,4.40
2023-11-15T10:33:13.776Z,3.70
2023-11-15T10:35:42.499Z,4.67
2023-11-15T10:38:10.492Z,3.93
2023-11-15T10:40:38.714Z,3.83
2023-11-15T10:43:06.820Z,3.83
2023-11-15T10:45:34.916Z,3.87
2023-11-15T10:48:05.537Z,3.87
2023-11-15T10:50:39.546Z,3.60
2023-11-15T10:53:09.095Z,3.97
2023-11-15T10:55:42.200Z,4.10
2023-11-15T10:58:10.570Z,3.97
2023-11-15T11:00:38.678Z,3.57
2023-11-15T11:03:06.975Z,3.87
2023-11-15T11:05:55.932Z,3.97
2023-11-15T11:08:41.714Z,3.80
2023-11-15T11:11:29.977Z,4.07
2023-11-15T11:14:16.389Z,3.67
2023-11-15T11:16:47.092Z,3.70
2023-11-15T11:19:15.834Z,3.83
2023-11-15T11:21:59.242Z,3.70
2023-11-15T11:24:27.313Z,3.67
2023-11-15T11:26:56.236Z,3.60
2023-11-15T11:29:24.529Z,3.80
2023-11-15T11:32:18.717Z,4.13
2023-11-15T11:35:06.503Z,3.77
2023-11-15T11:37:44.925Z,3.33
2023-11-15T11:40:12.861Z,3.57
2023-11-15T11:42:40.407Z,3.83
2023-11-15T11:45:08.707Z,3.40
2023-11-15T11:47:46.515Z,3.47
2023-11-15T11:50:21.267Z,3.60
2023-11-15T11:52:53.364Z,3.33
2023-11-15T11:55:21.023Z,3.00
2023-11-15T11:57:49.781Z,3.73
2023-11-15T12:00:20.375Z,3.60
2023-11-15T12:02:51.063Z,3.07
2023-11-15T12:05:23.132Z,3.33
2023-11-15T12:07:54.213Z,3.23
2023-11-15T12:10:21.830Z,3.47
2023-11-15T12:12:59.113Z,3.30
2023-11-15T12:15:27.283Z,2.97
2023-11-15T12:17:59.225Z,3.47
2023-11-15T12:20:28.010Z,3.13
2023-11-15T12:23:22.006Z,3.03
2023-11-15T12:25:50.611Z,3.30
2023-11-15T12:28:19.212Z,3.27
2023-11-15T12:30:47.565Z,3.30
2023-11-15T12:33:15.605Z,3.50
2023-11-15T12:35:44.354Z,2.93
2023-11-15T12:38:12.571Z,2.67
2023-11-15T12:40:41.358Z,2.33
2023-11-15T12:43:15.179Z,2.97
2023-11-15T12:45:42.876Z,2.97
2023-11-15T12:48:11.161Z,2.80
2023-11-15T12:50:40.109Z,3.70
2023-11-15T12:53:08.911Z,3.40
2023-11-15T12:55:38.567Z,3.10
2023-11-15T12:58:06.158Z,3.00
2023-11-15T13:00:33.774Z,3.10
2023-11-15T13:03:01.452Z,3.23
2023-11-15T13:05:29.886Z,3.10
2023-11-15T13:07:57.469Z,3.03
2023-11-15T13:10:25.142Z,3.03
2023-11-15T13:12:54.041Z,3.30
2023-11-15T13:15:22.888Z,2.70
2023-11-15T13:17:50.557Z,2.77
2023-11-15T13:20:18.211Z,2.70
2023-11-15T13:22:45.804Z,3.50
2023-11-15T13:25:13.530Z,3.00
2023-11-15T13:27:41.116Z,3.17
2023-11-15T13:30:09.058Z,2.67
2023-11-15T13:32:36.740Z,2.80
2023-11-15T13:35:04.434Z,2.60
2023-11-15T13:37:32.096Z,3.37
2023-11-15T13:39:59.698Z,2.90
2023-11-15T13:42:27.328Z,3.07
2023-11-15T13:44:55.012Z,2.90
2023-11-15T13:47:22.613Z,3.03
2023-11-15T13:49:50.241Z,2.67
2023-11-15T13:52:17.849Z,2.87
2023-11-15T13:54:45.493Z,2.43
2023-11-15T13:57:13.109Z,2.80
2023-11-15T13:59:40.795Z,2.73
2023-11-15T14:02:08.492Z,3.17
2023-11-15T14:04:36.244Z,2.30
2023-11-15T14:07:03.863Z,2.80
2023-11-15T14:09:31.533Z,2.90
2023-11-15T14:12:00.874Z,2.20
2023-11-15T14:14:28.921Z,2.60
2023-11-15T14:16:56.619Z,2.17
2023-11-15T14:19:24.348Z,2.70
2023-11-15T14:21:52.077Z,2.10
2023-11-15T14:24:19.910Z,3.10
2023-11-15T14:26:47.588Z,2.90
2023-11-15T14:29:15.683Z,2.57
2023-11-15T14:31:43.324Z,2.27
2023-11-15T14:34:11.027Z,2.60
2023-11-15T14:36:38.669Z,2.73
2023-11-15T14:39:06.354Z,2.70
2023-11-15T14:41:33.984Z,2.33
2023-11-15T14:44:01.894Z,3.27
2023-11-15T14:46:29.477Z,2.57
2023-11-15T14:48:57.192Z,2.80
2023-11-15T14:51:24.917Z,2.20
2023-11-15T14:53:52.720Z,1.70
2023-11-15T14:56:20.792Z,1.57
2023-11-15T14:58:51.323Z,1.87
2023-11-15T15:01:20.786Z,1.50
2023-11-15T15:03:48.857Z,1.50
2023-11-15T15:06:17.103Z,1.80
2023-11-15T15:08:44.713Z,1.97
2023-11-15T15:11:12.375Z,1.80
2023-11-15T15:13:40.067Z,1.80
2023-11-15T15:16:07.923Z,2.13
2023-11-15T15:18:36.749Z,2.40
2023-11-15T15:21:04.441Z,1.87
2023-11-15T15:23:32.007Z,2.47
2023-11-15T15:25:59.672Z,2.67
2023-11-15T15:28:27.312Z,3.50
2023-11-15T15:30:55.023Z,3.30
2023-11-15T15:33:22.770Z,3.47
2023-11-15T15:35:50.567Z,4.20
2023-11-15T15:38:18.144Z,4.90
2023-11-15T15:40:45.788Z,4.87
2023-11-15T15:43:13.497Z,4.00
2023-11-15T15:45:41.875Z,2.70
2023-11-15T15:48:09.549Z,2.70
2023-11-15T15:50:37.319Z,2.97
2023-11-15T15:53:04.920Z,2.73
2023-11-15T15:55:32.628Z,2.77
2023-11-15T15:58:00.248Z,3.03
2023-11-15T16:00:27.876Z,3.13
2023-11-15T16:02:55.532Z,3.40
2023-11-15T16:05:23.423Z,3.33
2023-11-15T16:07:51.143Z,3.67
2023-11-15T16:10:18.771Z,3.30
2023-11-15T16:12:46.382Z,3.50
2023-11-15T16:15:14.203Z,3.20
2023-11-15T16:17:41.930Z,3.80
2023-11-15T16:20:10.190Z,3.60
2023-11-15T16:22:37.897Z,4.00
2023-11-15T16:25:06.069Z,3.83
2023-11-15T16:27:37.211Z,3.70
2023-11-15T16:30:06.242Z,3.30
2023-11-15T16:32:33.938Z,4.27
2023-11-15T16:35:01.582Z,3.57
2023-11-15T16:37:31.637Z,3.90
2023-11-15T16:40:00.697Z,4.30
2023-11-15T16:42:28.323Z,4.23
2023-11-15T16:45:05.261Z,4.50
2023-11-15T16:47:37.013Z,4.03
2023-11-15T16:50:05.437Z,4.27
2023-11-15T16:52:33.259Z,4.03
2023-11-15T16:55:00.894Z,4.00
2023-11-15T16:57:28.623Z,4.00
2023-11-15T16:59:56.367Z,4.20
2023-11-15T17:02:24.003Z,4.37
2023-11-15T17:04:51.730Z,3.97
2023-11-15T17:07:19.307Z,4.73
2023-11-15T17:09:46.968Z,5.20
2023-11-15T17:12:14.610Z,6.00
2023-11-15T17:14:42.326Z,6.10
2023-11-15T17:17:09.911Z,5.90
2023-11-15T17:19:37.659Z,4.97
2023-11-15T17:22:05.365Z,4.67
2023-11-15T17:24:33.061Z,4.20
2023-11-15T17:27:00.784Z,4.10
2023-11-15T17:29:28.528Z,4.93
2023-11-15T17:31:56.119Z,4.67
2023-11-15T17:34:23.929Z,5.27
2023-11-15T17:36:51.596Z,4.60
2023-11-15T17:39:19.306Z,4.47
2023-11-15T17:41:47.018Z,4.33
2023-11-15T17:44:14.711Z,4.03
2023-11-15T17:46:45.488Z,3.43
2023-11-15T17:49:13.226Z,3.93
2023-11-15T17:51:40.859Z,3.73
2023-11-15T17:54:08.823Z,3.73
2023-11-15T17:56:36.512Z,4.03
2023-11-15T17:59:04.124Z,4.00
2023-11-15T18:01:32.607Z,4.00
2023-11-15T18:04:00.410Z,3.63
2023-11-15T18:06:28.086Z,3.70
2023-11-15T18:08:55.916Z,3.63
2023-11-15T18:11:23.562Z,3.60
2023-11-15T18:13:51.284Z,3.30
2023-11-15T18:16:18.946Z,3.70
2023-11-15T18:18:46.691Z,3.27
2023-11-15T18:21:14.499Z,3.83
2023-11-15T18:23:42.178Z,3.43
2023-11-15T18:26:09.776Z,3.40
2023-11-15T18:28:37.482Z,3.30
2023-11-15T18:31:05.157Z,3.40
2023-11-15T18:33:33.098Z,3.33
2023-11-15T18:36:01.279Z,3.37
2023-11-15T18:38:28.977Z,3.40
2023-11-15T18:40:56.758Z,3.43
2023-11-15T18:43:24.477Z,2.70
2023-11-15T18:45:52.149Z,2.83
2023-11-15T18:48:19.949Z,2.80
2023-11-15T18:50:47.675Z,3.10
2023-11-15T18:53:15.310Z,3.10
2023-11-15T18:55:43.017Z,2.60
2023-11-15T18:58:10.646Z,3.50
2023-11-15T19:00:38.261Z,3.33
2023-11-15T19:03:06.070Z,3.80
2023-11-15T19:05:33.833Z,3.47
2023-11-15T19:08:01.619Z,3.60
2023-11-15T19:10:31.933Z,3.50
2023-11-15T19:13:00.588Z,3.20
2023-11-15T19:15:28.273Z,3.30
2023-11-15T19:17:56.025Z,3.00
2023-11-15T19:20:23.900Z,4.03
2023-11-15T19:22:51.943Z,3.77
2023-11-15T19:25:19.538Z,3.60
2023-11-15T19:27:47.161Z,4.10
2023-11-15T19:30:14.963Z,3.80
2023-11-15T19:32:42.751Z,3.83
2023-11-15T19:35:10.363Z,3.70
2023-11-15T19:37:38.545Z,3.50
2023-11-15T19:40:06.944Z,3.33
2023-11-15T19:42:34.608Z,3.53
2023-11-15T19:45:02.214Z,3.23
2023-11-15T19:47:29.927Z,3.20
2023-11-15T19:49:57.554Z,3.33
2023-11-15T19:52:25.148Z,2.50
2023-11-15T19:54:52.689Z,3.40
2023-11-15T19:57:20.400Z,3.03
2023-11-15T19:59:48.035Z,2.67
2023-11-15T20:02:15.828Z,3.20
2023-11-15T20:04:43.514Z,2.60
2023-11-15T20:07:11.385Z,2.87
2023-11-15T20:09:39.087Z,2.97
2023-11-15T20:12:07.027Z,3.17
2023-11-15T20:14:34.633Z,2.90
2023-11-15T20:17:02.416Z,3.43
2023-11-15T20:19:29.985Z,3.07
2023-11-15T20:21:57.599Z,3.50
2023-11-15T20:24:25.198Z,3.67
2023-11-15T20:26:52.950Z,3.30
2023-11-15T20:29:20.560Z,3.63
2023-11-15T20:31:48.126Z,3.60
2023-11-15T20:34:17.286Z,3.10
2023-11-15T20:36:44.959Z,3.40
2023-11-15T20:41:46.165Z,3.90
2023-11-15T20:44:13.838Z,4.00
2023-11-15T20:46:41.472Z,4.30
2023-11-15T20:49:09.208Z,5.37
2023-11-15T20:51:36.883Z,4.77
2023-11-15T20:54:04.690Z,5.20
2023-11-15T20:56:32.299Z,5.13
2023-11-15T20:58:59.932Z,4.47
2023-11-15T21:01:27.510Z,4.53
2023-11-15T21:03:55.339Z,3.97
2023-11-15T21:06:23.008Z,3.43
2023-11-15T21:08:50.610Z,4.43
2023-11-15T21:11:18.180Z,3.77
2023-11-15T21:13:45.942Z,3.50
2023-11-15T21:16:16.888Z,3.00
2023-11-15T21:18:44.933Z,4.00
2023-11-15T21:21:13.661Z,3.80
2023-11-15T21:23:43.366Z,4.00
2023-11-15T21:26:10.939Z,4.10
2023-11-15T21:28:38.615Z,3.47
2023-11-15T21:31:06.383Z,3.40
2023-11-15T21:33:34.488Z,4.13
2023-11-15T21:36:02.135Z,3.70
2023-11-15T21:38:29.814Z,4.23
2023-11-15T21:40:57.373Z,4.23
2023-11-15T21:43:24.961Z,3.77
2023-11-15T21:45:52.589Z,3.63
2023-11-15T21:48:21.394Z,3.17
2023-11-15T21:50:49.057Z,3.33
2023-11-15T21:53:16.875Z,3.63
2023-11-15T21:55:44.579Z,4.03
2023-11-15T21:58:12.214Z,3.23
2023-11-15T22:00:40.278Z,3.57
2023-11-15T22:03:08.120Z,3.40
2023-11-15T22:05:35.791Z,3.63
2023-11-15T22:08:03.384Z,3.37
2023-11-15T22:10:30.985Z,3.43
2023-11-15T22:12:58.652Z,4.10
2023-11-15T22:15:26.317Z,3.20
2023-11-15T22:17:54.052Z,4.00
2023-11-15T22:20:21.748Z,4.23
2023-11-15T22:22:49.434Z,3.17
2023-11-15T22:25:17.059Z,4.03
2023-11-15T22:27:44.639Z,4.03
2023-11-15T22:30:12.584Z,4.30
2023-11-15T22:32:40.983Z,3.60
2023-11-15T22:35:09.750Z,3.53
2023-11-15T22:37:37.448Z,3.60
2023-11-15T22:40:05.136Z,3.30
2023-11-15T22:42:32.956Z,3.67
2023-11-15T22:45:00.689Z,4.00
2023-11-15T22:47:28.440Z,4.43
2023-11-15T22:49:55.998Z,3.07
2023-11-15T22:52:23.731Z,3.60
2023-11-15T22:54:51.305Z,4.17
2023-11-15T22:57:19.022Z,3.40
2023-11-15T22:59:48.847Z,4.30
2023-11-15T23:02:17.881Z,3.40
2023-11-15T23:04:45.578Z,3.80
2023-11-15T23:07:13.456Z,3.63
2023-11-15T23:09:41.003Z,3.70
2023-11-15T23:12:08.707Z,4.00
2023-11-15T23:14:36.306Z,3.30
2023-11-15T23:17:03.973Z,3.87
2023-11-15T23:19:31.568Z,3.60
2023-11-15T23:22:03.529Z,3.67
2023-11-15T23:24:32.092Z,4.13
2023-11-15T23:27:00.453Z,3.90
2023-11-15T23:29:29.511Z,4.53
2023-11-15T23:31:57.973Z,4.07
2023-11-15T23:34:25.884Z,3.83
2023-11-15T23:36:53.508Z,4.40
2023-11-15T23:39:21.244Z,4.03
2023-11-15T23:41:48.901Z,3.97
2023-11-15T23:44:16.563Z,4.07
2023-11-15T23:46:44.169Z,3.53
2023-11-15T23:49:11.840Z,3.37
2023-11-15T23:51:39.635Z,4.00
2023-11-15T23:54:07.553Z,3.80
2023-11-15T23:56:35.259Z,3.50
2023-11-15T23:59:03.030Z,4.20
